Weather at Kwalata Airport

Public forecast

Using degrees Celsius for public forecast. Weather courtesy of forecast.io.

Closest aviation weather report (METAR) to Kwalata Airport

Closest report is Selebi Phikwe Airport, 60.4 nm (111.9 km) N. Retrieved 2021/06/15 18:00 UTC (3 minutes ago):

FBSP 151800Z 00000KT CAVOK 12/06 Q1021

Closest aviation forecast (TAF) to Kwalata Airport

Forecast is more than 12 hours old.

Closest forecast is Selebi Phikwe Airport, 60.4 nm (111.9 km) N. Retrieved 2021/06/03 15:00 UTC (12 days ago):

TAF FBSP 031200Z 0315/0324 13010KT CAVOK